Time;durP1;ratioP1;P1;durP2;ratioP2;P2;SDS_P1;SDS_P2;PMS_P1;PMS_P2;Temp;Humidity;BMP_temperature;BMP_pressure;BME280_temperature;BME280_humidity;BME280_pressure;Samples;Min_cycle;Max_cycle;Signal;HPM_P1;HPM_P2
2022/08/21 00:00:23;;;;;;;8.10;6.20;;;14.60;99.90;;;;;;5084279;28;20703;-52
2022/08/21 00:02:52;;;;;;;6.23;5.67;;;14.70;99.90;;;;;;5080793;28;20193;-50
2022/08/21 00:05:20;;;;;;;9.27;5.50;;;14.60;99.90;;;;;;5070378;28;20221;-49
2022/08/21 00:07:46;;;;;;;6.70;5.40;;;14.50;99.90;;;;;;5055582;28;20214;-49
2022/08/21 00:10:14;;;;;;;6.43;4.93;;;14.40;99.90;;;;;;5082326;28;20220;-46
2022/08/21 00:12:45;;;;;;;8.50;5.20;;;14.30;99.90;;;;;;5058639;28;20207;-50
2022/08/21 00:15:15;;;;;;;7.67;5.07;;;14.20;99.90;;;;;;5063931;28;20202;-49
2022/08/21 00:17:42;;;;;;;9.00;5.67;;;14.20;99.90;;;;;;5060491;28;20220;-46
2022/08/21 00:20:10;;;;;;;6.47;5.50;;;14.10;99.90;;;;;;5064549;28;20226;-47
2022/08/21 00:22:38;;;;;;;6.23;4.93;;;14.10;99.90;;;;;;5061289;28;20240;-53
2022/08/21 00:25:07;;;;;;;5.63;4.47;;;14.00;99.90;;;;;;5053244;28;20217;-53
2022/08/21 00:27:34;;;;;;;6.30;4.60;;;14.00;99.90;;;;;;5063252;28;20210;-49
2022/08/21 00:30:04;;;;;;;5.70;4.30;;;13.90;99.90;;;;;;5062655;28;20223;-47
2022/08/21 00:32:31;;;;;;;6.43;4.93;;;13.90;99.90;;;;;;5062235;28;20229;-50
2022/08/21 00:34:58;;;;;;;5.83;4.07;;;14.00;99.90;;;;;;5065647;28;20186;-47
2022/08/21 00:37:25;;;;;;;5.27;4.63;;;14.00;99.90;;;;;;5074548;28;20204;-50
2022/08/21 00:39:52;;;;;;;4.87;4.30;;;14.00;99.90;;;;;;5049583;28;20240;-50
2022/08/21 00:42:20;;;;;;;6.07;4.30;;;14.00;99.90;;;;;;5073443;28;20190;-49
2022/08/21 00:44:49;;;;;;;5.77;3.87;;;14.00;99.90;;;;;;5069406;28;20204;-52
2022/08/21 00:47:17;;;;;;;4.33;3.93;;;14.00;99.90;;;;;;5083639;28;20292;-50
2022/08/21 00:49:45;;;;;;;5.23;4.30;;;14.10;99.90;;;;;;5079184;28;20190;-50
2022/08/21 00:52:16;;;;;;;6.50;3.83;;;14.20;99.90;;;;;;5083337;28;20210;-50
2022/08/21 00:54:44;;;;;;;4.23;3.40;;;14.20;99.90;;;;;;5063195;28;20225;-49
2022/08/21 00:57:15;;;;;;;5.23;4.37;;;14.20;99.90;;;;;;5076171;28;20228;-48
2022/08/21 00:59:44;;;;;;;4.87;3.47;;;14.20;99.90;;;;;;5061223;28;20195;-51
2022/08/21 01:02:12;;;;;;;4.10;3.50;;;14.10;99.90;;;;;;5063748;28;20199;-50
2022/08/21 01:04:41;;;;;;;6.37;3.57;;;14.00;99.90;;;;;;5064980;28;20534;-50
2022/08/21 01:07:08;;;;;;;5.30;3.23;;;14.00;99.90;;;;;;5068938;28;20205;-50
2022/08/21 01:09:37;;;;;;;7.33;3.90;;;13.90;99.90;;;;;;5057539;28;20198;-50
2022/08/21 01:12:05;;;;;;;5.23;3.80;;;14.00;99.90;;;;;;5067822;28;20294;-51
2022/08/21 01:14:31;;;;;;;6.47;3.57;;;14.00;99.90;;;;;;5066897;28;20598;-50
2022/08/21 01:17:02;;;;;;;4.33;3.77;;;14.00;99.90;;;;;;5062046;28;20193;-52
2022/08/21 01:19:30;;;;;;;3.60;3.30;;;14.10;99.90;;;;;;5062197;28;20289;-49
2022/08/21 01:21:59;;;;;;;5.43;3.60;;;14.10;99.90;;;;;;5061526;28;20214;-46
2022/08/21 01:24:26;;;;;;;4.97;4.03;;;14.00;99.90;;;;;;5057965;28;20285;-47
2022/08/21 01:26:54;;;;;;;3.90;3.50;;;14.00;99.90;;;;;;5068918;28;20199;-51
2022/08/21 01:29:31;;;;;;;5.67;3.50;;;13.90;99.90;;;;;;5068243;28;20214;-49
2022/08/21 01:31:58;;;;;;;5.90;3.90;;;13.90;99.90;;;;;;5071985;28;20229;-47
2022/08/21 01:34:25;;;;;;;6.33;4.13;;;13.90;99.90;;;;;;5075434;28;20719;-52
2022/08/21 01:36:52;;;;;;;3.93;3.47;;;13.90;99.90;;;;;;5072339;28;20191;-47
2022/08/21 01:39:20;;;;;;;4.50;3.73;;;13.90;99.90;;;;;;5067853;28;20197;-50
2022/08/21 01:41:47;;;;;;;5.27;3.63;;;13.90;99.90;;;;;;5059954;28;20216;-48
2022/08/21 01:44:14;;;;;;;5.70;3.80;;;13.90;99.90;;;;;;5072185;28;20235;-53
2022/08/21 01:46:41;;;;;;;6.63;4.10;;;13.90;99.90;;;;;;5062038;28;20202;-49
2022/08/21 01:49:08;;;;;;;5.67;3.73;;;13.80;99.90;;;;;;5067678;28;20686;-48
2022/08/21 01:51:36;;;;;;;4.70;4.00;;;13.90;99.90;;;;;;5064708;28;20225;-46
2022/08/21 01:54:03;;;;;;;4.87;3.60;;;13.90;99.90;;;;;;5065365;28;20276;-48
2022/08/21 01:56:37;;;;;;;4.70;3.50;;;13.80;99.90;;;;;;5059925;28;20209;-50
2022/08/21 01:59:03;;;;;;;5.57;4.07;;;13.90;99.90;;;;;;5072938;28;20194;-49
2022/08/21 02:01:30;;;;;;;3.83;3.50;;;13.90;99.90;;;;;;5067440;28;20218;-51
2022/08/21 02:03:57;;;;;;;4.27;3.50;;;13.80;99.90;;;;;;5083616;28;20189;-48
2022/08/21 02:06:24;;;;;;;5.27;4.00;;;13.80;99.90;;;;;;5079356;28;20594;-50
2022/08/21 02:08:51;;;;;;;4.27;3.83;;;13.70;99.90;;;;;;5069176;28;20195;-51
2022/08/21 02:11:18;;;;;;;4.17;3.80;;;13.70;99.90;;;;;;5067017;28;20265;-52
2022/08/21 02:13:46;;;;;;;6.13;3.87;;;13.70;99.90;;;;;;5061260;28;20823;-48
2022/08/21 02:16:14;;;;;;;5.67;4.00;;;13.60;99.90;;;;;;5080025;28;20202;-49
2022/08/21 02:18:41;;;;;;;4.47;3.90;;;13.60;99.90;;;;;;5062666;28;20209;-50
2022/08/21 02:21:08;;;;;;;4.30;3.47;;;13.60;99.90;;;;;;5086138;28;20221;-47
2022/08/21 02:23:36;;;;;;;4.53;4.00;;;13.60;99.90;;;;;;5082116;28;20206;-46
2022/08/21 02:26:06;;;;;;;6.90;4.23;;;13.60;99.90;;;;;;5085653;28;20310;-50
2022/08/21 02:28:33;;;;;;;6.27;3.47;;;13.60;99.90;;;;;;5063222;28;20226;-52
2022/08/21 02:31:01;;;;;;;4.13;3.73;;;13.50;99.90;;;;;;5078201;28;20210;-51
2022/08/21 02:33:29;;;;;;;4.73;3.87;;;13.50;99.90;;;;;;5065782;28;20210;-48
2022/08/21 02:35:57;;;;;;;4.43;3.93;;;13.50;99.90;;;;;;5076094;28;20214;-50
2022/08/21 02:38:27;;;;;;;5.47;3.90;;;13.50;99.90;;;;;;5066518;28;20217;-52
2022/08/21 02:40:55;;;;;;;4.33;3.30;;;13.50;99.90;;;;;;5063876;28;20219;-50
2022/08/21 02:43:24;;;;;;;7.30;4.27;;;13.50;99.90;;;;;;5053388;28;20206;-49
2022/08/21 02:45:52;;;;;;;5.07;4.10;;;13.50;99.90;;;;;;5069538;28;20194;-51
2022/08/21 02:48:23;;;;;;;3.93;3.53;;;13.50;99.90;;;;;;5065998;28;20202;-51
2022/08/21 02:50:55;;;;;;;6.33;4.17;;;13.50;99.90;;;;;;5063045;28;20301;-52
2022/08/21 02:53:23;;;;;;;4.23;3.80;;;13.50;99.90;;;;;;5064612;28;20219;-47
2022/08/21 02:55:51;;;;;;;4.07;3.67;;;13.50;99.90;;;;;;5062972;28;20290;-53
2022/08/21 02:58:25;;;;;;;4.40;3.67;;;13.40;99.90;;;;;;5058747;28;20213;-49
2022/08/21 03:00:53;;;;;;;5.03;3.90;;;13.30;99.90;;;;;;5074480;28;20220;-46
2022/08/21 03:03:22;;;;;;;4.93;3.50;;;13.40;99.90;;;;;;5068227;28;20203;-51
2022/08/21 03:05:49;;;;;;;5.33;3.97;;;13.40;99.90;;;;;;5072581;28;20929;-49
2022/08/21 03:08:18;;;;;;;4.50;4.07;;;13.50;99.90;;;;;;5068766;28;20199;-50
2022/08/21 03:10:48;;;;;;;5.03;3.50;;;13.50;99.90;;;;;;5061851;28;20911;-49
2022/08/21 03:13:16;;;;;;;5.97;3.77;;;13.40;99.90;;;;;;5054890;28;20217;-50
2022/08/21 03:15:43;;;;;;;4.60;3.70;;;13.30;99.90;;;;;;5074251;28;20194;-49
2022/08/21 03:18:11;;;;;;;4.90;3.73;;;13.40;99.90;;;;;;5068096;28;20202;-46
2022/08/21 03:20:41;;;;;;;4.53;3.80;;;13.50;99.90;;;;;;5061241;28;20691;-48
2022/08/21 03:23:09;;;;;;;4.73;3.33;;;13.50;99.90;;;;;;5065363;28;20194;-48
2022/08/21 03:25:36;;;;;;;6.23;3.70;;;13.50;99.90;;;;;;5062196;28;20232;-51
2022/08/21 03:28:05;;;;;;;4.63;3.30;;;13.50;99.90;;;;;;5053266;28;20202;-49
2022/08/21 03:30:32;;;;;;;4.60;4.10;;;13.50;99.90;;;;;;5069506;28;20310;-49
2022/08/21 03:32:59;;;;;;;5.47;3.90;;;13.50;99.90;;;;;;5064312;28;20211;-49
2022/08/21 03:35:27;;;;;;;5.00;4.00;;;13.50;99.90;;;;;;5068508;28;20248;-49
2022/08/21 03:37:55;;;;;;;6.93;4.23;;;13.50;99.90;;;;;;5071532;28;20201;-48
2022/08/21 03:40:24;;;;;;;5.40;3.67;;;13.40;99.90;;;;;;5065089;28;20593;-52
2022/08/21 03:42:51;;;;;;;5.83;3.80;;;13.40;99.90;;;;;;5061474;28;20425;-47
2022/08/21 03:45:19;;;;;;;5.10;4.40;;;13.40;99.90;;;;;;5054265;28;20822;-50
2022/08/21 03:47:57;;;;;;;5.73;3.97;;;13.40;99.90;;;;;;5070342;28;20194;-51
2022/08/21 03:50:25;;;;;;;5.03;3.50;;;13.40;99.90;;;;;;5064611;28;20226;-49
2022/08/21 03:52:52;;;;;;;5.00;3.80;;;13.40;99.90;;;;;;5063945;28;20217;-51
2022/08/21 03:55:20;;;;;;;4.40;3.93;;;13.30;99.90;;;;;;5083499;28;20247;-50
2022/08/21 03:57:47;;;;;;;3.80;3.60;;;13.30;99.90;;;;;;5080348;28;20848;-45
2022/08/21 04:00:16;;;;;;;4.60;3.67;;;13.40;99.90;;;;;;5058323;28;20586;-48
2022/08/21 04:02:43;;;;;;;6.57;3.90;;;13.40;99.90;;;;;;5064119;28;20187;-51
2022/08/21 04:05:12;;;;;;;5.20;3.90;;;13.40;99.90;;;;;;5074229;28;20277;-49
2022/08/21 04:07:39;;;;;;;5.17;3.83;;;13.40;99.90;;;;;;5057855;28;20203;-48
2022/08/21 04:10:08;;;;;;;6.17;3.50;;;13.30;99.90;;;;;;5064001;28;20227;-45
2022/08/21 04:12:35;;;;;;;4.60;4.13;;;13.20;99.90;;;;;;5060396;28;20218;-46
2022/08/21 04:15:04;;;;;;;6.50;3.37;;;13.10;99.90;;;;;;5055957;28;20772;-51
2022/08/21 04:17:30;;;;;;;6.63;4.03;;;13.10;99.90;;;;;;5067655;28;20757;-45
2022/08/21 04:19:57;;;;;;;4.80;3.67;;;13.20;99.90;;;;;;5072833;28;20222;-47
2022/08/21 04:22:24;;;;;;;4.47;3.47;;;13.20;99.90;;;;;;5067616;28;20558;-48
2022/08/21 04:24:50;;;;;;;8.00;3.73;;;13.30;99.90;;;;;;5067872;28;20206;-51
2022/08/21 04:27:17;;;;;;;5.03;3.60;;;13.40;99.90;;;;;;5063080;28;20690;-51
2022/08/21 04:29:46;;;;;;;3.97;3.57;;;13.30;99.90;;;;;;5051145;28;20321;-50
2022/08/21 04:32:13;;;;;;;3.50;3.23;;;13.40;99.90;;;;;;5072753;28;20210;-51
2022/08/21 04:34:39;;;;;;;6.03;4.10;;;13.40;99.90;;;;;;5064099;28;20202;-52
2022/08/21 04:37:06;;;;;;;4.13;3.73;;;13.40;99.90;;;;;;5073967;28;20657;-49
2022/08/21 04:39:33;;;;;;;6.33;4.60;;;13.40;99.90;;;;;;5055530;28;20202;-49
2022/08/21 04:42:00;;;;;;;4.73;3.70;;;13.30;99.90;;;;;;5063668;28;20219;-51
2022/08/21 04:44:27;;;;;;;5.20;4.17;;;13.30;99.90;;;;;;5059509;28;20678;-50
2022/08/21 04:46:55;;;;;;;4.37;3.97;;;13.40;99.90;;;;;;5058522;28;20206;-50
2022/08/21 04:49:22;;;;;;;4.47;4.03;;;13.40;99.90;;;;;;5067004;28;20202;-51
2022/08/21 04:51:50;;;;;;;4.10;3.80;;;13.40;99.90;;;;;;5074514;28;20301;-50
2022/08/21 04:54:21;;;;;;;4.30;3.53;;;13.50;99.90;;;;;;5079207;28;20202;-50
2022/08/21 04:56:51;;;;;;;3.77;3.30;;;13.60;99.90;;;;;;5064113;28;20202;-49
2022/08/21 04:59:23;;;;;;;5.10;3.90;;;13.60;99.90;;;;;;5065192;28;20575;-51
2022/08/21 05:01:53;;;;;;;4.37;3.97;;;13.60;99.90;;;;;;5058677;28;20907;-49
2022/08/21 05:04:27;;;;;;;5.87;3.50;;;13.50;99.90;;;;;;5073992;28;20279;-52
2022/08/21 05:06:56;;;;;;;4.40;3.40;;;13.60;99.90;;;;;;5067407;28;20201;-51
2022/08/21 05:09:25;;;;;;;3.73;3.43;;;13.70;99.90;;;;;;5063774;28;20198;-52
2022/08/21 05:11:52;;;;;;;4.83;3.90;;;13.70;99.90;;;;;;5066679;28;20633;-51
2022/08/21 05:14:20;;;;;;;5.00;4.50;;;13.80;99.90;;;;;;5066617;28;20202;-50
2022/08/21 05:16:47;;;;;;;4.40;3.93;;;13.80;99.90;;;;;;5062179;28;20271;-50
2022/08/21 05:19:13;;;;;;;3.73;3.43;;;13.80;99.90;;;;;;5049894;28;20202;-51
2022/08/21 05:21:44;;;;;;;6.40;4.53;;;13.80;99.90;;;;;;5070481;28;20219;-51
2022/08/21 05:24:11;;;;;;;4.53;3.80;;;13.90;99.90;;;;;;5060668;28;20741;-53
2022/08/21 05:26:38;;;;;;;4.40;4.00;;;13.90;99.90;;;;;;5054523;28;20214;-50
2022/08/21 05:29:06;;;;;;;4.83;4.03;;;14.00;99.90;;;;;;5077917;28;20208;-46
2022/08/21 05:31:33;;;;;;;4.17;3.70;;;14.00;99.90;;;;;;5071729;28;20997;-48
2022/08/21 05:33:59;;;;;;;5.60;3.97;;;14.10;99.90;;;;;;5054810;28;20230;-50
2022/08/21 05:36:26;;;;;;;5.30;4.50;;;14.10;99.90;;;;;;5069855;28;20209;-50
2022/08/21 05:38:54;;;;;;;4.60;3.93;;;14.20;99.90;;;;;;5057798;28;20245;-50
2022/08/21 05:41:21;;;;;;;6.30;4.37;;;14.20;99.90;;;;;;5054626;28;20230;-48
2022/08/21 05:43:48;;;;;;;6.47;4.40;;;14.30;99.90;;;;;;5066882;28;20212;-48
2022/08/21 05:46:16;;;;;;;4.27;3.83;;;14.40;99.90;;;;;;5076937;28;20196;-48
2022/08/21 05:48:43;;;;;;;5.20;4.17;;;14.40;99.90;;;;;;5062705;28;20457;-50
2022/08/21 05:51:12;;;;;;;6.20;3.77;;;14.50;99.90;;;;;;5057281;28;20222;-50
2022/08/21 05:53:39;;;;;;;6.93;4.60;;;14.60;99.90;;;;;;5057370;28;20580;-48
2022/08/21 05:56:07;;;;;;;8.23;4.30;;;14.60;99.90;;;;;;5065234;28;20209;-50
2022/08/21 05:58:34;;;;;;;6.03;4.10;;;14.60;99.90;;;;;;5056065;28;20218;-54
2022/08/21 06:01:03;;;;;;;4.60;3.77;;;14.70;99.90;;;;;;5066461;28;20221;-53
2022/08/21 06:03:32;;;;;;;5.63;3.97;;;14.80;99.90;;;;;;5065816;28;20194;-48
2022/08/21 06:05:59;;;;;;;5.03;3.90;;;14.90;99.90;;;;;;5060327;28;20213;-48
2022/08/21 06:08:26;;;;;;;5.17;3.43;;;14.90;99.90;;;;;;5071228;28;20205;-48
2022/08/21 06:10:54;;;;;;;7.40;3.97;;;15.00;99.90;;;;;;5066891;28;20226;-51
2022/08/21 06:13:23;;;;;;;4.43;4.00;;;15.00;99.90;;;;;;5066145;28;20222;-46
2022/08/21 06:16:00;;;;;;;6.70;3.77;;;15.10;99.90;;;;;;5065032;28;20186;-49
2022/08/21 06:18:27;;;;;;;4.50;3.77;;;15.10;99.90;;;;;;5069845;28;20194;-48
2022/08/21 06:20:54;;;;;;;6.40;4.17;;;15.20;99.90;;;;;;5057224;28;20223;-51
2022/08/21 06:23:20;;;;;;;5.00;3.70;;;15.20;99.90;;;;;;5069898;28;20203;-52
2022/08/21 06:25:47;;;;;;;5.00;3.70;;;15.30;99.90;;;;;;5063372;28;20348;-46
2022/08/21 06:28:15;;;;;;;5.73;4.30;;;15.40;99.90;;;;;;5065340;28;20213;-51
2022/08/21 06:30:42;;;;;;;4.70;3.83;;;15.50;99.90;;;;;;5072548;28;20221;-45
2022/08/21 06:33:10;;;;;;;4.70;3.90;;;15.60;99.90;;;;;;5069827;28;20210;-49
2022/08/21 06:35:37;;;;;;;7.00;4.03;;;15.70;99.90;;;;;;5067196;28;20214;-49
2022/08/21 06:38:04;;;;;;;9.30;4.00;;;15.80;99.90;;;;;;5073870;28;20576;-50
2022/08/21 06:40:31;;;;;;;4.17;3.73;;;15.90;99.90;;;;;;5068088;28;20305;-47
2022/08/21 06:43:06;;;;;;;7.07;4.00;;;15.90;99.90;;;;;;5070948;28;20652;-48
2022/08/21 06:45:33;;;;;;;6.37;3.80;;;16.10;99.90;;;;;;5071000;28;20286;-50
2022/08/21 06:48:01;;;;;;;4.10;3.70;;;16.10;99.90;;;;;;5068998;28;20686;-49
2022/08/21 06:50:29;;;;;;;4.90;3.67;;;16.20;99.90;;;;;;5061950;28;20304;-46
2022/08/21 06:53:00;;;;;;;5.90;3.00;;;16.30;99.90;;;;;;5076952;28;20634;-47
2022/08/21 06:55:27;;;;;;;4.43;3.00;;;16.40;99.90;;;;;;5059118;28;20260;-48
2022/08/21 06:57:53;;;;;;;4.50;3.27;;;16.50;99.90;;;;;;5074620;28;20652;-49
2022/08/21 07:00:21;;;;;;;4.93;3.23;;;16.60;99.90;;;;;;5065210;28;20211;-47
2022/08/21 07:02:48;;;;;;;6.33;3.30;;;16.70;99.90;;;;;;5066623;28;20195;-47
2022/08/21 07:05:16;;;;;;;3.97;3.07;;;16.70;99.90;;;;;;5071723;28;20197;-50
2022/08/21 07:07:43;;;;;;;5.27;2.90;;;16.90;99.90;;;;;;5064427;28;20210;-46
2022/08/21 07:10:10;;;;;;;4.27;2.93;;;17.00;99.90;;;;;;5070535;28;20224;-51
2022/08/21 07:12:37;;;;;;;6.13;3.00;;;17.10;99.90;;;;;;5066968;28;20206;-45
2022/08/21 07:15:05;;;;;;;4.10;2.60;;;17.20;99.90;;;;;;5064715;28;20202;-50
2022/08/21 07:17:32;;;;;;;4.37;2.83;;;17.30;99.90;;;;;;5068850;28;20197;-51
2022/08/21 07:19:58;;;;;;;5.90;3.30;;;17.40;99.90;;;;;;5075515;28;20233;-50
2022/08/21 07:22:28;;;;;;;4.40;2.50;;;17.50;99.90;;;;;;5057757;28;20213;-50
2022/08/21 07:24:55;;;;;;;3.25;2.22;;;17.60;99.90;;;;;;5075369;28;20378;-46
2022/08/21 07:27:22;;;;;;;4.57;2.63;;;17.70;99.90;;;;;;5069917;28;20202;-49
2022/08/21 07:29:49;;;;;;;5.50;2.50;;;17.80;99.90;;;;;;5066733;28;20230;-48
2022/08/21 07:32:16;;;;;;;4.80;2.30;;;17.90;99.90;;;;;;5068403;28;20281;-45
2022/08/21 07:34:44;;;;;;;5.20;2.80;;;18.00;99.90;;;;;;5066403;28;20248;-51
2022/08/21 07:37:11;;;;;;;2.23;1.90;;;18.10;99.90;;;;;;5063557;28;20202;-47
2022/08/21 07:39:39;;;;;;;4.70;2.10;;;18.10;99.90;;;;;;5066401;28;20191;-50
2022/08/21 07:42:06;;;;;;;3.13;1.83;;;18.30;99.90;;;;;;5065554;28;20820;-49
2022/08/21 07:44:34;;;;;;;6.70;1.90;;;18.40;99.90;;;;;;5060206;28;20683;-48
2022/08/21 07:47:01;;;;;;;4.20;1.93;;;18.50;99.90;;;;;;5063603;28;20209;-47
2022/08/21 07:49:28;;;;;;;5.53;1.57;;;18.50;99.90;;;;;;5071473;28;20199;-50
2022/08/21 07:51:56;;;;;;;4.13;2.00;;;18.60;99.90;;;;;;5069981;28;20229;-47
2022/08/21 07:54:22;;;;;;;2.63;1.60;;;18.80;99.90;;;;;;5058390;28;20248;-50
2022/08/21 07:56:50;;;;;;;2.13;1.60;;;18.90;99.90;;;;;;5068722;28;20194;-48
2022/08/21 07:59:18;;;;;;;4.67;1.67;;;19.00;99.90;;;;;;5065815;28;20577;-48
2022/08/21 08:01:45;;;;;;;5.13;1.83;;;19.20;99.90;;;;;;5055241;28;20233;-46
2022/08/21 08:04:12;;;;;;;3.00;1.43;;;19.30;99.90;;;;;;5072210;28;20189;-48
2022/08/21 08:06:39;;;;;;;5.80;1.57;;;19.50;99.90;;;;;;5063845;28;20213;-47
2022/08/21 08:09:06;;;;;;;6.17;1.30;;;19.70;99.90;;;;;;5061297;28;20658;-47
2022/08/21 08:11:32;;;;;;;5.83;2.10;;;19.80;99.90;;;;;;5067113;28;20237;-48
2022/08/21 08:14:03;;;;;;;2.07;1.67;;;20.00;99.90;;;;;;5070772;28;20225;-48
2022/08/21 08:16:30;;;;;;;1.93;1.20;;;20.10;99.90;;;;;;5055295;28;20202;-50
2022/08/21 08:18:57;;;;;;;4.23;1.60;;;20.20;99.90;;;;;;5074107;28;20194;-44
2022/08/21 08:21:24;;;;;;;2.23;1.27;;;20.30;99.90;;;;;;5067890;28;20272;-50
2022/08/21 08:23:51;;;;;;;4.60;1.50;;;20.40;99.90;;;;;;5078305;28;20284;-47
2022/08/21 08:26:18;;;;;;;4.63;1.63;;;20.50;99.90;;;;;;5064144;28;20275;-50
2022/08/21 08:28:46;;;;;;;5.17;1.57;;;20.60;99.90;;;;;;5070535;28;20190;-51
2022/08/21 08:31:15;;;;;;;2.33;1.10;;;20.70;99.90;;;;;;5062753;28;20244;-45
2022/08/21 08:33:41;;;;;;;4.83;1.20;;;20.70;99.90;;;;;;5062035;28;20222;-46
2022/08/21 08:36:14;;;;;;;3.23;1.13;;;20.80;99.90;;;;;;5075465;28;20225;-46
2022/08/21 08:38:41;;;;;;;2.87;1.30;;;20.90;99.90;;;;;;5060178;28;20213;-49
2022/08/21 08:41:13;;;;;;;7.73;1.93;;;20.90;99.90;;;;;;5060928;28;20222;-50
2022/08/21 08:43:42;;;;;;;2.90;1.50;;;21.00;99.90;;;;;;5066570;28;20962;-50
2022/08/21 08:46:15;;;;;;;3.50;1.50;;;21.10;99.90;;;;;;5065199;28;20206;-50
2022/08/21 08:48:49;;;;;;;3.63;1.20;;;21.20;99.90;;;;;;5058663;28;20455;-48
2022/08/21 08:51:20;;;;;;;4.43;1.57;;;21.20;99.90;;;;;;5068955;28;20238;-50
2022/08/21 08:53:52;;;;;;;3.70;1.83;;;21.30;99.90;;;;;;5055159;28;20221;-49
2022/08/21 08:56:28;;;;;;;4.10;1.60;;;21.40;99.90;;;;;;5039875;28;20215;-50
2022/08/21 08:58:59;;;;;;;3.53;1.93;;;21.30;99.90;;;;;;5070023;28;20197;-50
2022/08/21 09:01:28;;;;;;;4.30;2.23;;;21.40;99.90;;;;;;5054083;28;20223;-49
2022/08/21 09:03:54;;;;;;;4.97;2.07;;;21.40;99.90;;;;;;5059856;28;20198;-51
2022/08/21 09:06:37;;;;;;;3.13;1.40;;;21.50;99.90;;;;;;5071867;28;20223;-50
2022/08/21 09:09:23;;;;;;;3.53;1.47;;;21.50;99.80;;;;;;5059420;28;20198;-50
2022/08/21 09:11:58;;;;;;;6.37;1.87;;;21.40;99.90;;;;;;5054305;28;20214;-51
2022/08/21 09:14:34;;;;;;;6.97;1.90;;;21.40;99.90;;;;;;5065212;28;20703;-49
2022/08/21 09:17:14;;;;;;;5.00;2.33;;;21.50;99.70;;;;;;5062560;28;20202;-50
2022/08/21 09:19:57;;;;;;;4.20;2.10;;;21.50;99.90;;;;;;5057142;28;20202;-53
2022/08/21 09:22:33;;;;;;;6.30;2.33;;;21.60;99.60;;;;;;5063681;28;20715;-51
2022/08/21 09:25:09;;;;;;;3.13;1.87;;;21.70;99.30;;;;;;5063795;28;20918;-48
2022/08/21 09:27:36;;;;;;;6.97;1.77;;;21.70;99.10;;;;;;5062651;28;20201;-50
2022/08/21 09:30:07;;;;;;;6.03;1.47;;;21.70;99.50;;;;;;5067662;28;20698;-51
2022/08/21 09:32:37;;;;;;;6.57;2.10;;;21.80;99.20;;;;;;5057564;28;20206;-52
2022/08/21 09:35:08;;;;;;;7.20;1.87;;;21.90;99.10;;;;;;5068496;28;20228;-46
2022/08/21 09:37:47;;;;;;;5.03;1.80;;;21.90;98.60;;;;;;5065330;28;20206;-53
2022/08/21 09:40:30;;;;;;;5.77;2.37;;;21.90;98.60;;;;;;5069227;28;20226;-51
2022/08/21 09:43:00;;;;;;;5.47;1.90;;;21.90;98.30;;;;;;5057204;28;20694;-48
2022/08/21 09:45:27;;;;;;;3.90;1.53;;;21.90;98.40;;;;;;5075714;28;20191;-51
2022/08/21 09:47:56;;;;;;;4.80;1.80;;;21.90;98.40;;;;;;5062962;28;20190;-47
2022/08/21 09:50:25;;;;;;;5.80;2.10;;;22.10;98.00;;;;;;5056027;28;20571;-46
2022/08/21 09:52:55;;;;;;;11.67;2.60;;;22.20;98.40;;;;;;5066298;28;20196;-51
2022/08/21 09:58:17;;;;;;;4.57;2.03;;;22.30;97.70;;;;;;5057513;28;20234;-50
2022/08/21 10:00:44;;;;;;;5.27;1.73;;;22.30;97.70;;;;;;5075269;28;20211;-49
2022/08/21 10:03:16;;;;;;;5.30;1.57;;;22.50;97.40;;;;;;5077053;28;20198;-46
2022/08/21 10:05:53;;;;;;;6.97;2.00;;;22.50;97.30;;;;;;5060953;28;20202;-46
2022/08/21 10:08:21;;;;;;;4.20;2.55;;;22.60;97.20;;;;;;5073591;28;20197;-48
2022/08/21 10:10:53;;;;;;;3.33;1.70;;;22.50;97.30;;;;;;5068469;28;20228;-50
2022/08/21 10:13:27;;;;;;;6.95;1.52;;;22.50;97.10;;;;;;5056073;28;20217;-48
2022/08/21 10:16:07;;;;;;;5.05;1.58;;;22.40;97.40;;;;;;5079856;28;20224;-48
2022/08/21 10:18:40;;;;;;;3.08;1.70;;;22.40;97.00;;;;;;5062043;28;20197;-47
2022/08/21 10:21:17;;;;;;;4.82;1.70;;;22.50;96.40;;;;;;5067381;28;20223;-47
2022/08/21 10:23:54;;;;;;;6.90;1.90;;;22.70;96.20;;;;;;5081002;28;20200;-49
2022/08/21 10:26:36;;;;;;;7.28;2.08;;;22.80;95.80;;;;;;5065631;28;20205;-45
2022/08/21 10:29:11;;;;;;;7.25;1.60;;;22.80;94.50;;;;;;5069905;28;20286;-46
2022/08/21 10:31:46;;;;;;;2.88;1.77;;;22.80;94.70;;;;;;5078034;28;20740;-46
2022/08/21 10:34:36;;;;;;;3.58;1.70;;;22.70;94.80;;;;;;5069230;28;20202;-56
2022/08/21 10:37:13;;;;;;;4.22;1.98;;;22.80;94.80;;;;;;5058781;28;20807;-54
2022/08/21 10:39:50;;;;;;;4.30;1.48;;;22.90;94.70;;;;;;5069301;28;20202;-58
2022/08/21 10:42:34;;;;;;;3.38;1.98;;;22.90;94.90;;;;;;5071543;28;20255;-48
2022/08/21 10:45:14;;;;;;;6.40;1.80;;;23.00;94.80;;;;;;5056543;28;20194;-47
2022/08/21 10:47:48;;;;;;;3.88;2.05;;;23.00;95.10;;;;;;5067547;28;20669;-48
2022/08/21 10:50:29;;;;;;;3.67;1.70;;;23.10;95.40;;;;;;5065976;28;20225;-47
2022/08/21 10:53:16;;;;;;;8.65;2.00;;;23.20;94.80;;;;;;5062345;28;20293;-50
2022/08/21 10:55:49;;;;;;;3.05;2.25;;;23.20;94.60;;;;;;5069888;28;20218;-48
2022/08/21 10:58:24;;;;;;;6.03;2.42;;;23.10;95.00;;;;;;5079625;28;20206;-44
2022/08/21 11:00:56;;;;;;;4.72;2.03;;;22.90;94.90;;;;;;5069577;28;20217;-49
2022/08/21 11:03:29;;;;;;;3.25;1.30;;;22.90;95.20;;;;;;5068558;28;20279;-49
2022/08/21 11:06:03;;;;;;;4.25;1.58;;;23.00;95.10;;;;;;5070049;28;21370;-52
2022/08/21 11:08:34;;;;;;;4.05;1.45;;;23.20;94.50;;;;;;5068200;28;20221;-54
2022/08/21 11:11:06;;;;;;;2.72;1.52;;;23.50;94.20;;;;;;5071539;28;20297;-47
2022/08/21 11:13:38;;;;;;;2.42;1.85;;;23.60;93.00;;;;;;5064937;28;20203;-54
2022/08/21 11:16:11;;;;;;;5.38;1.48;;;23.70;91.80;;;;;;5062029;28;20210;-49
2022/08/21 11:18:41;;;;;;;3.25;1.60;;;23.80;91.60;;;;;;5072475;28;20229;-49
2022/08/21 11:21:30;;;;;;;3.00;1.48;;;23.80;90.40;;;;;;5072702;28;20229;-52
2022/08/21 11:24:04;;;;;;;1.67;1.30;;;23.80;89.60;;;;;;5063135;28;20208;-49
2022/08/21 11:26:36;;;;;;;1.20;1.05;;;23.80;90.80;;;;;;5064752;28;20202;-45
2022/08/21 11:29:10;;;;;;;3.05;1.35;;;24.00;90.20;;;;;;5075171;28;20194;-44
2022/08/21 11:31:52;;;;;;;2.10;1.67;;;24.10;89.30;;;;;;5058074;28;20228;-44
2022/08/21 11:34:30;;;;;;;1.70;1.42;;;24.10;89.80;;;;;;5069813;28;20208;-46
2022/08/21 11:37:05;;;;;;;2.67;1.30;;;24.00;88.10;;;;;;5066369;28;20313;-45
2022/08/21 11:39:42;;;;;;;3.75;1.60;;;23.80;87.70;;;;;;5064335;28;20198;-45
2022/08/21 11:42:20;;;;;;;2.47;1.40;;;23.70;87.60;;;;;;5070868;28;20208;-45
2022/08/21 11:44:52;;;;;;;1.95;1.85;;;23.70;87.30;;;;;;5043337;28;20198;-43
2022/08/21 11:47:32;;;;;;;2.08;1.08;;;23.70;87.20;;;;;;5074538;28;20205;-43
2022/08/21 11:50:13;;;;;;;2.55;1.20;;;23.80;86.50;;;;;;5069651;28;20210;-44
2022/08/21 11:52:45;;;;;;;2.38;1.60;;;23.80;86.50;;;;;;5058168;28;20606;-44
2022/08/21 11:55:19;;;;;;;1.45;1.27;;;23.70;86.70;;;;;;5077084;28;20301;-42
2022/08/21 11:57:51;;;;;;;2.17;1.40;;;23.60;86.70;;;;;;5056938;28;20198;-43
2022/08/21 12:00:23;;;;;;;3.00;1.42;;;23.60;86.30;;;;;;5070939;28;20229;-44
2022/08/21 12:02:52;;;;;;;2.03;1.17;;;23.70;86.30;;;;;;5056404;28;20427;-43
2022/08/21 12:05:27;;;;;;;1.48;1.35;;;23.70;84.40;;;;;;5075387;28;20186;-42
2022/08/21 12:08:05;;;;;;;2.35;1.25;;;23.90;83.10;;;;;;5057429;28;20205;-43
2022/08/21 12:10:35;;;;;;;3.63;1.30;;;24.20;81.70;;;;;;5076164;28;20217;-44
2022/08/21 12:13:09;;;;;;;1.45;1.13;;;24.40;81.30;;;;;;5078595;28;20197;-47
2022/08/21 12:15:36;;;;;;;2.03;1.48;;;24.50;80.50;;;;;;5067272;28;20783;-43
2022/08/21 12:18:05;;;;;;;1.73;1.35;;;24.50;80.40;;;;;;5056510;28;20206;-46
2022/08/21 12:20:44;;;;;;;2.53;1.23;;;24.70;94.30;;;;;;5066717;28;20233;-44
2022/08/21 12:23:25;;;;;;;1.73;1.33;;;24.80;80.60;;;;;;5076069;28;20209;-45
2022/08/21 12:26:03;;;;;;;2.35;1.30;;;24.60;80.00;;;;;;5059213;28;20285;-43
2022/08/21 12:28:32;;;;;;;1.73;1.52;;;24.40;80.50;;;;;;5061587;28;20210;-45
2022/08/21 12:30:59;;;;;;;2.42;1.73;;;24.20;81.40;;;;;;5063981;28;20323;-47
2022/08/21 12:33:29;;;;;;;3.15;1.45;;;24.10;82.00;;;;;;5052637;28;20222;-42
2022/08/21 12:36:05;;;;;;;3.17;1.70;;;23.90;81.90;;;;;;5069142;28;20238;-44
2022/08/21 12:38:48;;;;;;;1.60;1.20;;;23.80;82.00;;;;;;5060599;28;20200;-44
2022/08/21 12:41:22;;;;;;;2.28;1.02;;;23.80;82.20;;;;;;5063611;28;20219;-43
2022/08/21 12:43:56;;;;;;;2.80;1.25;;;24.00;81.00;;;;;;5055105;28;20210;-42
2022/08/21 12:46:30;;;;;;;1.23;0.98;;;24.40;79.10;;;;;;5069449;28;20212;-44
2022/08/21 12:49:00;;;;;;;1.65;1.00;;;24.60;77.40;;;;;;5053332;28;20206;-43
2022/08/21 12:51:33;;;;;;;1.83;1.38;;;24.80;76.50;;;;;;5071624;28;20218;-45
2022/08/21 12:54:02;;;;;;;1.40;1.00;;;24.80;77.50;;;;;;5071932;28;20382;-43
2022/08/21 12:56:33;;;;;;;1.70;1.13;;;24.90;77.50;;;;;;5068022;28;20218;-47
2022/08/21 12:59:05;;;;;;;2.55;1.13;;;25.20;76.50;;;;;;5070040;28;20202;-45
2022/08/21 13:01:35;;;;;;;1.88;1.08;;;25.30;76.40;;;;;;5074541;28;20230;-43
2022/08/21 13:04:11;;;;;;;1.55;1.00;;;25.70;75.10;;;;;;5067311;28;20289;-47